sensor_id;sensor_type;location;lat;lon;timestamp;pressure;altitude;pressure_sealevel;temperature;humidity
75418;BME280;63997;52.112;5.420;2022-10-31T00:00:25;102200.81;;;10.70;91.29
75418;BME280;63997;52.112;5.420;2022-10-31T00:02:51;102204.34;;;10.66;91.16
75418;BME280;63997;52.112;5.420;2022-10-31T00:05:18;102196.72;;;10.59;90.83
75418;BME280;63997;52.112;5.420;2022-10-31T00:07:44;102193.56;;;10.57;90.91
75418;BME280;63997;52.112;5.420;2022-10-31T00:10:10;102198.88;;;10.57;91.00
75418;BME280;63997;52.112;5.420;2022-10-31T00:12:37;102198.81;;;10.62;91.01
75418;BME280;63997;52.112;5.420;2022-10-31T00:15:03;102199.91;;;10.61;90.72
75418;BME280;63997;52.112;5.420;2022-10-31T00:17:29;102199.59;;;10.63;90.86
75418;BME280;63997;52.112;5.420;2022-10-31T00:19:56;102202.75;;;10.65;90.95
75418;BME280;63997;52.112;5.420;2022-10-31T00:22:22;102204.06;;;10.67;91.11
75418;BME280;63997;52.112;5.420;2022-10-31T00:24:49;102206.94;;;10.71;90.83
75418;BME280;63997;52.112;5.420;2022-10-31T00:27:15;102201.34;;;10.72;91.26
75418;BME280;63997;52.112;5.420;2022-10-31T00:29:42;102210.31;;;10.76;91.50
75418;BME280;63997;52.112;5.420;2022-10-31T00:32:08;102206.38;;;10.74;90.85
75418;BME280;63997;52.112;5.420;2022-10-31T00:34:34;102213.03;;;10.71;91.16
75418;BME280;63997;52.112;5.420;2022-10-31T00:37:01;102213.63;;;10.68;90.90
75418;BME280;63997;52.112;5.420;2022-10-31T00:39:27;102219.03;;;10.63;90.90
75418;BME280;63997;52.112;5.420;2022-10-31T00:41:53;102214.78;;;10.62;90.74
75418;BME280;63997;52.112;5.420;2022-10-31T00:44:20;102214.78;;;10.62;90.89
75418;BME280;63997;52.112;5.420;2022-10-31T00:46:46;102215.28;;;10.64;91.22
75418;BME280;63997;52.112;5.420;2022-10-31T00:49:12;102213.69;;;10.63;91.10
75418;BME280;63997;52.112;5.420;2022-10-31T00:51:38;102214.00;;;10.62;90.93
75418;BME280;63997;52.112;5.420;2022-10-31T00:54:05;102219.56;;;10.60;90.80
75418;BME280;63997;52.112;5.420;2022-10-31T00:56:31;102223.31;;;10.59;91.10
75418;BME280;63997;52.112;5.420;2022-10-31T00:58:58;102216.97;;;10.55;91.02
75418;BME280;63997;52.112;5.420;2022-10-31T01:01:24;102214.84;;;10.57;91.34
75418;BME280;63997;52.112;5.420;2022-10-31T01:03:51;102223.31;;;10.59;91.18
75418;BME280;63997;52.112;5.420;2022-10-31T01:06:17;102215.03;;;10.60;91.20
75418;BME280;63997;52.112;5.420;2022-10-31T01:08:46;102218.00;;;10.59;91.23
75418;BME280;63997;52.112;5.420;2022-10-31T01:11:16;102211.09;;;10.58;91.46
75418;BME280;63997;52.112;5.420;2022-10-31T01:13:43;102208.13;;;10.59;91.39
75418;BME280;63997;52.112;5.420;2022-10-31T01:16:13;102211.16;;;10.53;90.72
75418;BME280;63997;52.112;5.420;2022-10-31T01:18:40;102205.09;;;10.47;91.04
75418;BME280;63997;52.112;5.420;2022-10-31T01:21:36;102208.25;;;10.49;91.09
75418;BME280;63997;52.112;5.420;2022-10-31T01:24:02;102201.88;;;10.50;90.88
75418;BME280;63997;52.112;5.420;2022-10-31T01:26:31;102197.34;;;10.51;90.97
75418;BME280;63997;52.112;5.420;2022-10-31T01:28:59;102186.72;;;10.51;91.09
75418;BME280;63997;52.112;5.420;2022-10-31T01:31:29;102185.94;;;10.50;90.92
75418;BME280;63997;52.112;5.420;2022-10-31T01:33:55;102187.22;;;10.53;91.08
75418;BME280;63997;52.112;5.420;2022-10-31T01:36:28;102192.03;;;10.51;91.08
75418;BME280;63997;52.112;5.420;2022-10-31T01:39:00;102186.19;;;10.49;91.24
75418;BME280;63997;52.112;5.420;2022-10-31T01:41:29;102184.63;;;10.48;90.95
75418;BME280;63997;52.112;5.420;2022-10-31T01:43:59;102191.00;;;10.47;91.19
75418;BME280;63997;52.112;5.420;2022-10-31T01:46:34;102186.28;;;10.44;90.81
75418;BME280;63997;52.112;5.420;2022-10-31T01:49:05;102188.75;;;10.35;90.55
75418;BME280;63997;52.112;5.420;2022-10-31T01:51:38;102187.53;;;10.27;90.63
75418;BME280;63997;52.112;5.420;2022-10-31T01:54:10;102184.91;;;10.22;90.77
75418;BME280;63997;52.112;5.420;2022-10-31T01:56:40;102180.72;;;10.16;91.08
75418;BME280;63997;52.112;5.420;2022-10-31T01:59:11;102178.59;;;10.13;90.84
75418;BME280;63997;52.112;5.420;2022-10-31T02:01:40;102180.53;;;10.07;90.39
75418;BME280;63997;52.112;5.420;2022-10-31T02:04:07;102179.34;;;9.95;90.04
75418;BME280;63997;52.112;5.420;2022-10-31T02:06:45;102179.97;;;9.81;89.88
75418;BME280;63997;52.112;5.420;2022-10-31T02:09:13;102181.16;;;9.70;90.15
75418;BME280;63997;52.112;5.420;2022-10-31T02:11:40;102183.06;;;9.65;90.41
75418;BME280;63997;52.112;5.420;2022-10-31T02:14:07;102179.63;;;9.64;90.57
75418;BME280;63997;52.112;5.420;2022-10-31T02:16:33;102182.84;;;9.61;90.20
75418;BME280;63997;52.112;5.420;2022-10-31T02:18:59;102179.19;;;9.52;90.04
75418;BME280;63997;52.112;5.420;2022-10-31T02:21:32;102181.13;;;9.41;89.83
75418;BME280;63997;52.112;5.420;2022-10-31T02:27:04;102189.78;;;9.23;90.32
75418;BME280;63997;52.112;5.420;2022-10-31T02:30:35;102185.81;;;9.20;90.48
75418;BME280;63997;52.112;5.420;2022-10-31T02:32:58;102186.66;;;9.16;90.46
75418;BME280;63997;52.112;5.420;2022-10-31T02:38:41;102185.59;;;9.12;90.72
75418;BME280;63997;52.112;5.420;2022-10-31T02:43:47;102189.03;;;9.12;90.76
75418;BME280;63997;52.112;5.420;2022-10-31T02:46:25;102190.91;;;9.12;90.59
75418;BME280;63997;52.112;5.420;2022-10-31T02:48:57;102189.88;;;9.08;89.81
75418;BME280;63997;52.112;5.420;2022-10-31T02:51:26;102198.16;;;8.96;89.52
75418;BME280;63997;52.112;5.420;2022-10-31T02:53:53;102199.84;;;8.82;89.46
75418;BME280;63997;52.112;5.420;2022-10-31T02:56:19;102188.97;;;8.78;89.97
75418;BME280;63997;52.112;5.420;2022-10-31T02:58:52;102195.59;;;8.81;89.91
75418;BME280;63997;52.112;5.420;2022-10-31T03:01:24;102197.44;;;8.80;89.37
75418;BME280;63997;52.112;5.420;2022-10-31T03:06:35;102188.72;;;8.74;88.87
75418;BME280;63997;52.112;5.420;2022-10-31T03:11:58;102196.69;;;8.69;88.38
75418;BME280;63997;52.112;5.420;2022-10-31T03:14:39;102196.22;;;8.62;88.40
75418;BME280;63997;52.112;5.420;2022-10-31T03:17:13;102202.34;;;8.53;88.35
75418;BME280;63997;52.112;5.420;2022-10-31T03:19:43;102194.19;;;8.39;88.18
75418;BME280;63997;52.112;5.420;2022-10-31T03:22:19;102191.25;;;8.30;88.46
75418;BME280;63997;52.112;5.420;2022-10-31T03:24:48;102192.31;;;8.29;88.70
75418;BME280;63997;52.112;5.420;2022-10-31T03:27:21;102196.31;;;8.32;88.78
75418;BME280;63997;52.112;5.420;2022-10-31T03:29:51;102198.41;;;8.30;88.45
75418;BME280;63997;52.112;5.420;2022-10-31T03:32:38;102201.06;;;8.30;88.73
75418;BME280;63997;52.112;5.420;2022-10-31T03:35:08;102200.03;;;8.31;88.76
75418;BME280;63997;52.112;5.420;2022-10-31T03:37:39;102207.41;;;8.34;88.73
75418;BME280;63997;52.112;5.420;2022-10-31T03:40:08;102194.16;;;8.34;88.97
75418;BME280;63997;52.112;5.420;2022-10-31T03:42:39;102192.06;;;8.31;88.80
75418;BME280;63997;52.112;5.420;2022-10-31T03:45:17;102197.91;;;8.22;88.77
75418;BME280;63997;52.112;5.420;2022-10-31T03:47:45;102203.78;;;8.14;88.56
75418;BME280;63997;52.112;5.420;2022-10-31T03:50:13;102194.50;;;8.07;88.74
75418;BME280;63997;52.112;5.420;2022-10-31T03:52:54;102203.00;;;8.09;89.14
75418;BME280;63997;52.112;5.420;2022-10-31T03:55:37;102197.41;;;8.10;88.89
75418;BME280;63997;52.112;5.420;2022-10-31T03:58:09;102195.84;;;8.09;88.60
75418;BME280;63997;52.112;5.420;2022-10-31T04:00:40;102199.56;;;8.08;88.45
75418;BME280;63997;52.112;5.420;2022-10-31T04:03:21;102193.72;;;8.01;88.72
75418;BME280;63997;52.112;5.420;2022-10-31T04:05:51;102194.56;;;7.86;87.99
75418;BME280;63997;52.112;5.420;2022-10-31T04:08:22;102194.56;;;7.76;88.52
75418;BME280;63997;52.112;5.420;2022-10-31T04:10:51;102193.75;;;7.71;88.85
75418;BME280;63997;52.112;5.420;2022-10-31T04:13:27;102201.72;;;7.71;88.99
75418;BME280;63997;52.112;5.420;2022-10-31T04:15:56;102207.00;;;7.60;89.09
75418;BME280;63997;52.112;5.420;2022-10-31T04:18:23;102205.69;;;7.53;89.45
75418;BME280;63997;52.112;5.420;2022-10-31T04:20:59;102211.50;;;7.55;89.68
75418;BME280;63997;52.112;5.420;2022-10-31T04:23:27;102199.84;;;7.61;89.73
75418;BME280;63997;52.112;5.420;2022-10-31T04:25:54;102200.13;;;7.64;89.49
75418;BME280;63997;52.112;5.420;2022-10-31T04:28:21;102201.19;;;7.63;89.34
75418;BME280;63997;52.112;5.420;2022-10-31T04:30:47;102204.88;;;7.62;89.14
75418;BME280;63997;52.112;5.420;2022-10-31T04:33:14;102201.69;;;7.60;89.45
75418;BME280;63997;52.112;5.420;2022-10-31T04:35:40;102200.63;;;7.61;89.46
75418;BME280;63997;52.112;5.420;2022-10-31T04:38:06;102198.00;;;7.56;89.20
75418;BME280;63997;52.112;5.420;2022-10-31T04:40:33;102198.00;;;7.51;89.25
75418;BME280;63997;52.112;5.420;2022-10-31T04:42:59;102197.75;;;7.48;89.35
75418;BME280;63997;52.112;5.420;2022-10-31T04:45:26;102195.63;;;7.50;89.42
75418;BME280;63997;52.112;5.420;2022-10-31T04:47:52;102186.88;;;7.54;89.32
75418;BME280;63997;52.112;5.420;2022-10-31T04:50:18;102189.53;;;7.54;89.46
75418;BME280;63997;52.112;5.420;2022-10-31T04:52:45;102191.13;;;7.55;89.34
75418;BME280;63997;52.112;5.420;2022-10-31T04:55:13;102183.16;;;7.55;89.34
75418;BME280;63997;52.112;5.420;2022-10-31T04:57:43;102184.50;;;7.53;89.23
75418;BME280;63997;52.112;5.420;2022-10-31T05:00:11;102187.94;;;7.53;89.25
75418;BME280;63997;52.112;5.420;2022-10-31T05:02:45;102184.75;;;7.51;89.10
75418;BME280;63997;52.112;5.420;2022-10-31T05:05:13;102192.44;;;7.53;89.19
75418;BME280;63997;52.112;5.420;2022-10-31T05:07:41;102182.09;;;7.51;88.93
75418;BME280;63997;52.112;5.420;2022-10-31T05:10:13;102184.22;;;7.49;88.72
75418;BME280;63997;52.112;5.420;2022-10-31T05:12:51;102184.50;;;7.42;88.54
75418;BME280;63997;52.112;5.420;2022-10-31T05:15:19;102179.47;;;7.41;88.72
75418;BME280;63997;52.112;5.420;2022-10-31T05:17:46;102174.69;;;7.33;88.66
75418;BME280;63997;52.112;5.420;2022-10-31T05:20:15;102184.75;;;7.26;88.41
75418;BME280;63997;52.112;5.420;2022-10-31T05:22:52;102184.75;;;7.21;88.55
75418;BME280;63997;52.112;5.420;2022-10-31T05:25:21;102179.19;;;7.22;88.97
75418;BME280;63997;52.112;5.420;2022-10-31T05:27:50;102174.16;;;7.26;89.18
75418;BME280;63997;52.112;5.420;2022-10-31T05:30:19;102182.63;;;7.28;89.39
75418;BME280;63997;52.112;5.420;2022-10-31T05:32:47;102175.47;;;7.28;89.20
75418;BME280;63997;52.112;5.420;2022-10-31T05:35:34;102171.78;;;7.29;89.28
75418;BME280;63997;52.112;5.420;2022-10-31T05:38:01;102173.63;;;7.29;89.25
75418;BME280;63997;52.112;5.420;2022-10-31T05:40:27;102169.13;;;7.29;89.30
75418;BME280;63997;52.112;5.420;2022-10-31T05:42:55;102180.75;;;7.23;89.09
75418;BME280;63997;52.112;5.420;2022-10-31T05:45:23;102170.97;;;7.13;89.19
75418;BME280;63997;52.112;5.420;2022-10-31T05:48:00;102174.66;;;7.02;89.14
75418;BME280;63997;52.112;5.420;2022-10-31T05:50:29;102171.47;;;7.00;89.55
75418;BME280;63997;52.112;5.420;2022-10-31T05:53:02;102168.06;;;7.05;89.59
75418;BME280;63997;52.112;5.420;2022-10-31T05:55:29;102168.06;;;7.05;89.69
75418;BME280;63997;52.112;5.420;2022-10-31T05:57:56;102162.75;;;7.05;89.82
75418;BME280;63997;52.112;5.420;2022-10-31T06:00:23;102160.63;;;7.07;89.87
75418;BME280;63997;52.112;5.420;2022-10-31T06:02:58;102160.13;;;7.10;89.87
75418;BME280;63997;52.112;5.420;2022-10-31T06:05:25;102165.94;;;7.07;89.80
75418;BME280;63997;52.112;5.420;2022-10-31T06:07:51;102162.50;;;7.06;89.95
75418;BME280;63997;52.112;5.420;2022-10-31T06:10:17;102163.28;;;7.12;90.22
75418;BME280;63997;52.112;5.420;2022-10-31T06:12:45;102159.84;;;7.11;89.97
75418;BME280;63997;52.112;5.420;2022-10-31T06:15:11;102154.06;;;7.14;89.91
75418;BME280;63997;52.112;5.420;2022-10-31T06:17:38;102163.56;;;7.15;90.08
75418;BME280;63997;52.112;5.420;2022-10-31T06:20:05;102159.34;;;7.14;89.85
75418;BME280;63997;52.112;5.420;2022-10-31T06:22:32;102155.13;;;7.13;89.93
75418;BME280;63997;52.112;5.420;2022-10-31T06:24:58;102153.50;;;7.12;89.99
75418;BME280;63997;52.112;5.420;2022-10-31T06:27:25;102160.41;;;7.13;90.32
75418;BME280;63997;52.112;5.420;2022-10-31T06:29:51;102154.56;;;7.16;90.74
75418;BME280;63997;52.112;5.420;2022-10-31T06:32:18;102155.09;;;7.24;90.73
75418;BME280;63997;52.112;5.420;2022-10-31T06:34:45;102160.66;;;7.27;90.65
75418;BME280;63997;52.112;5.420;2022-10-31T06:37:14;102157.75;;;7.29;90.45
75418;BME280;63997;52.112;5.420;2022-10-31T06:39:41;102156.16;;;7.28;90.38
75418;BME280;63997;52.112;5.420;2022-10-31T06:42:07;102172.03;;;7.28;90.20
75418;BME280;63997;52.112;5.420;2022-10-31T06:44:33;102168.09;;;7.25;89.86
75418;BME280;63997;52.112;5.420;2022-10-31T06:47:00;102166.50;;;7.24;90.13
75418;BME280;63997;52.112;5.420;2022-10-31T06:49:26;102164.66;;;7.25;90.19
75418;BME280;63997;52.112;5.420;2022-10-31T06:51:52;102171.25;;;7.27;90.32
75418;BME280;63997;52.112;5.420;2022-10-31T06:54:19;102176.81;;;7.31;90.29
75418;BME280;63997;52.112;5.420;2022-10-31T06:56:46;102177.88;;;7.35;90.33
75418;BME280;63997;52.112;5.420;2022-10-31T06:59:14;102185.28;;;7.33;90.51
75418;BME280;63997;52.112;5.420;2022-10-31T07:01:41;102176.28;;;7.39;90.68
75418;BME280;63997;52.112;5.420;2022-10-31T07:04:10;102178.41;;;7.42;90.90
75418;BME280;63997;52.112;5.420;2022-10-31T07:06:37;102175.50;;;7.49;90.99
75418;BME280;63997;52.112;5.420;2022-10-31T07:09:04;102178.41;;;7.52;90.89
75418;BME280;63997;52.112;5.420;2022-10-31T07:11:31;102178.41;;;7.52;91.01
75418;BME280;63997;52.112;5.420;2022-10-31T07:13:57;102177.38;;;7.58;91.26
75418;BME280;63997;52.112;5.420;2022-10-31T07:16:23;102178.94;;;7.69;91.42
75418;BME280;63997;52.112;5.420;2022-10-31T07:18:50;102173.38;;;7.76;91.49
75418;BME280;63997;52.112;5.420;2022-10-31T07:21:16;102169.94;;;7.81;91.39
75418;BME280;63997;52.112;5.420;2022-10-31T07:23:43;102175.75;;;7.83;91.49
75418;BME280;63997;52.112;5.420;2022-10-31T07:26:09;102172.56;;;7.86;91.25
75418;BME280;63997;52.112;5.420;2022-10-31T07:28:36;102163.81;;;7.90;91.52
75418;BME280;63997;52.112;5.420;2022-10-31T07:31:03;102173.59;;;8.00;91.37
75418;BME280;63997;52.112;5.420;2022-10-31T07:33:31;102175.16;;;8.06;91.39
75418;BME280;63997;52.112;5.420;2022-10-31T07:35:58;102180.72;;;8.10;91.19
75418;BME280;63997;52.112;5.420;2022-10-31T07:38:27;102188.91;;;8.13;91.27
75418;BME280;63997;52.112;5.420;2022-10-31T07:40:54;102183.63;;;8.13;91.31
75418;BME280;63997;52.112;5.420;2022-10-31T07:43:22;102181.22;;;8.22;91.63
75418;BME280;63997;52.112;5.420;2022-10-31T07:45:51;102188.06;;;8.33;91.68
75418;BME280;63997;52.112;5.420;2022-10-31T07:48:19;102188.31;;;8.47;91.76
75418;BME280;63997;52.112;5.420;2022-10-31T07:50:47;102188.28;;;8.57;91.63
75418;BME280;63997;52.112;5.420;2022-10-31T07:53:14;102192.50;;;8.63;91.52
75418;BME280;63997;52.112;5.420;2022-10-31T07:55:42;102195.91;;;8.69;91.42
75418;BME280;63997;52.112;5.420;2022-10-31T07:58:13;102192.41;;;8.79;91.10
75418;BME280;63997;52.112;5.420;2022-10-31T08:00:42;102191.88;;;8.87;90.99
75418;BME280;63997;52.112;5.420;2022-10-31T08:03:13;102193.44;;;8.88;91.29
75418;BME280;63997;52.112;5.420;2022-10-31T08:05:41;102193.16;;;8.89;91.13
75418;BME280;63997;52.112;5.420;2022-10-31T08:08:08;102196.88;;;8.93;91.20
75418;BME280;63997;52.112;5.420;2022-10-31T08:10:36;102205.03;;;9.02;91.34
75418;BME280;63997;52.112;5.420;2022-10-31T08:13:12;102197.00;;;9.12;91.51
75418;BME280;63997;52.112;5.420;2022-10-31T08:15:40;102200.03;;;9.35;91.51
75418;BME280;63997;52.112;5.420;2022-10-31T08:18:13;102206.06;;;9.45;91.37
75418;BME280;63997;52.112;5.420;2022-10-31T08:20:41;102203.38;;;9.50;91.38
75418;BME280;63997;52.112;5.420;2022-10-31T08:23:10;102199.84;;;9.60;91.19
75418;BME280;63997;52.112;5.420;2022-10-31T08:25:38;102194.91;;;9.77;90.99
75418;BME280;63997;52.112;5.420;2022-10-31T08:28:06;102193.66;;;9.99;91.05
75418;BME280;63997;52.112;5.420;2022-10-31T08:30:36;102194.00;;;10.16;90.78
75418;BME280;63997;52.112;5.420;2022-10-31T08:35:38;102187.56;;;10.46;90.98
75418;BME280;63997;52.112;5.420;2022-10-31T08:38:05;102185.56;;;10.57;90.84
75418;BME280;63997;52.112;5.420;2022-10-31T08:40:34;102184.44;;;10.63;90.79
75418;BME280;63997;52.112;5.420;2022-10-31T08:43:06;102189.56;;;10.78;90.52
75418;BME280;63997;52.112;5.420;2022-10-31T08:45:35;102182.94;;;10.76;90.30
75418;BME280;63997;52.112;5.420;2022-10-31T08:48:05;102184.31;;;10.73;90.40
75418;BME280;63997;52.112;5.420;2022-10-31T08:50:34;102180.56;;;10.74;90.47
75418;BME280;63997;52.112;5.420;2022-10-31T08:55:39;102165.91;;;10.96;90.60
75418;BME280;63997;52.112;5.420;2022-10-31T08:58:11;102167.53;;;11.10;90.21
75418;BME280;63997;52.112;5.420;2022-10-31T09:00:39;102159.47;;;11.16;90.31
75418;BME280;63997;52.112;5.420;2022-10-31T09:03:11;102167.19;;;11.17;90.06
75418;BME280;63997;52.112;5.420;2022-10-31T09:05:39;102167.88;;;11.23;90.05
75418;BME280;63997;52.112;5.420;2022-10-31T09:08:07;102165.25;;;11.36;90.61
75418;BME280;63997;52.112;5.420;2022-10-31T09:10:42;102156.81;;;11.48;90.40
75418;BME280;63997;52.112;5.420;2022-10-31T09:13:11;102149.13;;;11.60;90.41
75418;BME280;63997;52.112;5.420;2022-10-31T09:15:40;102141.22;;;11.88;89.77
75418;BME280;63997;52.112;5.420;2022-10-31T09:18:08;102138.94;;;12.09;89.44
75418;BME280;63997;52.112;5.420;2022-10-31T09:20:36;102134.38;;;12.23;89.54
75418;BME280;63997;52.112;5.420;2022-10-31T09:23:06;102141.50;;;12.41;89.77
75418;BME280;63997;52.112;5.420;2022-10-31T09:25:34;102134.28;;;12.42;90.24
75418;BME280;63997;52.112;5.420;2022-10-31T09:28:02;102123.41;;;12.38;90.52
75418;BME280;63997;52.112;5.420;2022-10-31T09:30:32;102112.72;;;12.38;90.74
75418;BME280;63997;52.112;5.420;2022-10-31T09:33:01;102117.47;;;12.41;91.22
75418;BME280;63997;52.112;5.420;2022-10-31T09:35:28;102111.25;;;12.46;90.93
75418;BME280;63997;52.112;5.420;2022-10-31T09:37:56;102106.28;;;12.53;91.10
75418;BME280;63997;52.112;5.420;2022-10-31T09:40:30;102112.78;;;12.61;91.21
75418;BME280;63997;52.112;5.420;2022-10-31T09:46:25;102109.16;;;12.79;91.30
75418;BME280;63997;52.112;5.420;2022-10-31T09:49:02;102115.25;;;12.93;91.71
75418;BME280;63997;52.112;5.420;2022-10-31T09:51:47;102117.34;;;13.05;92.35
75418;BME280;63997;52.112;5.420;2022-10-31T09:54:21;102116.66;;;13.13;92.19
75418;BME280;63997;52.112;5.420;2022-10-31T09:56:52;102107.59;;;13.23;92.51
75418;BME280;63997;52.112;5.420;2022-10-31T09:59:30;102105.16;;;13.35;92.03
75418;BME280;63997;52.112;5.420;2022-10-31T10:02:56;102098.31;;;13.52;91.87
75418;BME280;63997;52.112;5.420;2022-10-31T10:05:18;102098.09;;;13.70;91.46
75418;BME280;63997;52.112;5.420;2022-10-31T10:08:09;102095.94;;;13.81;91.06
75418;BME280;63997;52.112;5.420;2022-10-31T10:10:51;102086.06;;;13.99;91.17
75418;BME280;63997;52.112;5.420;2022-10-31T10:13:46;102086.56;;;14.10;90.99
75418;BME280;63997;52.112;5.420;2022-10-31T10:21:38;102082.03;;;14.27;89.05
75418;BME280;63997;52.112;5.420;2022-10-31T10:26:46;102092.72;;;14.27;89.11
75418;BME280;63997;52.112;5.420;2022-10-31T10:32:00;102072.09;;;14.28;88.50
75418;BME280;63997;52.112;5.420;2022-10-31T10:34:34;102063.75;;;14.29;88.47
75418;BME280;63997;52.112;5.420;2022-10-31T10:37:08;102076.84;;;14.31;88.77
75418;BME280;63997;52.112;5.420;2022-10-31T10:39:41;102068.97;;;14.35;88.99
75418;BME280;63997;52.112;5.420;2022-10-31T10:42:15;102061.09;;;14.38;88.63
75418;BME280;63997;52.112;5.420;2022-10-31T10:45:14;102056.69;;;14.42;88.51
75418;BME280;63997;52.112;5.420;2022-10-31T10:48:06;102053.25;;;14.50;88.32
75418;BME280;63997;52.112;5.420;2022-10-31T10:50:41;102037.50;;;14.58;88.22
75418;BME280;63997;52.112;5.420;2022-10-31T10:56:15;102011.81;;;14.74;87.50
75418;BME280;63997;52.112;5.420;2022-10-31T10:58:42;102020.13;;;14.81;87.40
75418;BME280;63997;52.112;5.420;2022-10-31T11:01:13;102019.34;;;14.89;87.40
75418;BME280;63997;52.112;5.420;2022-10-31T11:03:41;102012.06;;;14.98;87.48
75418;BME280;63997;52.112;5.420;2022-10-31T11:06:19;101995.81;;;15.03;86.89
75418;BME280;63997;52.112;5.420;2022-10-31T11:08:48;101987.47;;;15.05;86.10
75418;BME280;63997;52.112;5.420;2022-10-31T11:11:26;101975.47;;;15.02;85.60
75418;BME280;63997;52.112;5.420;2022-10-31T11:14:11;101957.22;;;15.04;86.33
75418;BME280;63997;52.112;5.420;2022-10-31T11:16:41;101967.59;;;15.06;86.48
75418;BME280;63997;52.112;5.420;2022-10-31T11:21:37;101972.00;;;15.11;86.42
75418;BME280;63997;52.112;5.420;2022-10-31T11:26:37;101975.06;;;15.30;85.09
75418;BME280;63997;52.112;5.420;2022-10-31T11:29:13;101982.47;;;15.33;85.48
75418;BME280;63997;52.112;5.420;2022-10-31T11:31:40;101978.66;;;15.34;85.19
75418;BME280;63997;52.112;5.420;2022-10-31T11:34:15;101963.22;;;15.31;84.49
75418;BME280;63997;52.112;5.420;2022-10-31T11:36:43;101964.00;;;15.31;84.72
75418;BME280;63997;52.112;5.420;2022-10-31T11:39:19;101949.50;;;15.32;85.36
75418;BME280;63997;52.112;5.420;2022-10-31T11:41:47;101939.56;;;15.33;85.01
75418;BME280;63997;52.112;5.420;2022-10-31T11:44:18;101948.06;;;15.35;84.94
75418;BME280;63997;52.112;5.420;2022-10-31T11:46:50;101942.84;;;15.39;84.70
75418;BME280;63997;52.112;5.420;2022-10-31T11:49:29;101947.09;;;15.40;84.84
75418;BME280;63997;52.112;5.420;2022-10-31T11:52:00;101946.78;;;15.41;84.38
75418;BME280;63997;52.112;5.420;2022-10-31T11:54:30;101933.84;;;15.43;84.42
75418;BME280;63997;52.112;5.420;2022-10-31T11:56:57;101920.44;;;15.43;84.63
75418;BME280;63997;52.112;5.420;2022-10-31T11:59:31;101898.66;;;15.45;84.42
75418;BME280;63997;52.112;5.420;2022-10-31T12:01:59;101897.22;;;15.47;84.31
75418;BME280;63997;52.112;5.420;2022-10-31T12:04:49;101890.88;;;15.52;84.40
75418;BME280;63997;52.112;5.420;2022-10-31T12:07:16;101883.63;;;15.52;83.61
75418;BME280;63997;52.112;5.420;2022-10-31T12:09:43;101889.66;;;15.49;84.27
75418;BME280;63997;52.112;5.420;2022-10-31T12:17:58;101876.16;;;15.37;84.55
75418;BME280;63997;52.112;5.420;2022-10-31T12:23:29;101861.78;;;15.42;84.79
75418;BME280;63997;52.112;5.420;2022-10-31T12:39:15;101809.72;;;15.84;82.81
75418;BME280;63997;52.112;5.420;2022-10-31T12:42:17;101816.28;;;15.87;83.49
75418;BME280;63997;52.112;5.420;2022-10-31T12:48:01;101791.41;;;15.99;82.96
75418;BME280;63997;52.112;5.420;2022-10-31T12:54:29;101786.28;;;16.06;82.87
75418;BME280;63997;52.112;5.420;2022-10-31T12:57:13;101771.41;;;16.08;82.68
75418;BME280;63997;52.112;5.420;2022-10-31T12:59:51;101770.75;;;16.11;82.71
75418;BME280;63997;52.112;5.420;2022-10-31T13:02:39;101780.81;;;16.14;83.08
75418;BME280;63997;52.112;5.420;2022-10-31T13:05:31;101773.53;;;16.15;82.73
75418;BME280;63997;52.112;5.420;2022-10-31T13:08:12;101761.59;;;16.12;81.75
75418;BME280;63997;52.112;5.420;2022-10-31T13:10:58;101762.72;;;16.11;82.40
75418;BME280;63997;52.112;5.420;2022-10-31T13:13:42;101765.84;;;16.13;82.29
75418;BME280;63997;52.112;5.420;2022-10-31T13:16:19;101745.91;;;16.14;82.19
75418;BME280;63997;52.112;5.420;2022-10-31T13:18:50;101732.06;;;16.12;82.70
75418;BME280;63997;52.112;5.420;2022-10-31T13:21:25;101720.88;;;16.10;82.52
75418;BME280;63997;52.112;5.420;2022-10-31T13:23:52;101716.97;;;16.08;83.28
75418;BME280;63997;52.112;5.420;2022-10-31T13:26:31;101711.16;;;16.06;82.83
75418;BME280;63997;52.112;5.420;2022-10-31T13:29:05;101709.91;;;16.03;82.88
75418;BME280;63997;52.112;5.420;2022-10-31T13:31:39;101704.53;;;16.03;83.28
75418;BME280;63997;52.112;5.420;2022-10-31T13:34:16;101705.00;;;16.05;83.14
75418;BME280;63997;52.112;5.420;2022-10-31T13:37:14;101696.72;;;16.10;83.48
75418;BME280;63997;52.112;5.420;2022-10-31T13:44:49;101672.91;;;16.33;83.24
75418;BME280;63997;52.112;5.420;2022-10-31T13:47:25;101675.81;;;16.40;82.70
75418;BME280;63997;52.112;5.420;2022-10-31T13:50:06;101672.09;;;16.45;82.49
75418;BME280;63997;52.112;5.420;2022-10-31T13:52:45;101672.19;;;16.49;83.19
75418;BME280;63997;52.112;5.420;2022-10-31T13:58:38;101654.63;;;16.51;82.95
75418;BME280;63997;52.112;5.420;2022-10-31T14:03:41;101642.34;;;16.50;81.72
75418;BME280;63997;52.112;5.420;2022-10-31T14:06:36;101646.13;;;16.49;82.43
75418;BME280;63997;52.112;5.420;2022-10-31T14:09:04;101636.06;;;16.46;81.72
75418;BME280;63997;52.112;5.420;2022-10-31T14:11:31;101640.97;;;16.44;81.53
75418;BME280;63997;52.112;5.420;2022-10-31T14:14:02;101639.00;;;16.41;81.23
75418;BME280;63997;52.112;5.420;2022-10-31T14:16:30;101635.06;;;16.38;82.10
75418;BME280;63997;52.112;5.420;2022-10-31T14:19:04;101640.34;;;16.35;82.19
75418;BME280;63997;52.112;5.420;2022-10-31T14:21:38;101634.09;;;16.31;81.65
75418;BME280;63997;52.112;5.420;2022-10-31T14:26:56;101612.41;;;16.24;82.18
75418;BME280;63997;52.112;5.420;2022-10-31T14:29:30;101606.56;;;16.22;82.35
75418;BME280;63997;52.112;5.420;2022-10-31T14:32:14;101602.69;;;16.19;82.30
75418;BME280;63997;52.112;5.420;2022-10-31T14:34:56;101586.47;;;16.16;82.36
75418;BME280;63997;52.112;5.420;2022-10-31T14:37:44;101584.91;;;16.14;82.95
75418;BME280;63997;52.112;5.420;2022-10-31T14:45:46;101577.78;;;16.06;82.40